Řízení letového provozu České republiky  
Aktualizace dat:  29.04.2017 05:19:03 UTC English version
   METEO Zobrazení stránky:  29.04.2017 05:21:53 UTC  
vysvětlivky
METAR EDDB 290450Z 27006KT 6000 FEW028 BKN056 06/05 Q1014 NOSIG=
METAR EDDC 290450Z 22006KT CAVOK 04/01 Q1015 NOSIG=
METAR EDDE 290450Z 26007KT 9999 -SHRA SCT025 BKN038 04/02 Q1016 NOSIG=
METAR EDDF 290450Z 22004KT CAVOK 06/03 Q1017 NOSIG=
METAR EDDM 290450Z 26007KT CAVOK 02/01 Q1018 NOSIG=
METAR EDDN 290450Z VRB02KT 9999 BKN035 06/02 Q1017 NOSIG=
METAR EDDP 290450Z 27007KT 9999 -SHRA BKN032CB 05/04 Q1016 NOSIG=
METAR EDDT 290450Z 28005KT 6000 NSC 06/05 Q1015 TEMPO 4000 BR=
METAR EDQM 281750Z 10004KT 070V140 CAVOK 06/M02 Q1012=
METAR EPBY 290500Z 29008KT 9999 FEW007 SCT018 BKN024 05/04 Q1012 =
METAR EPGD 290500Z 32011KT 9000 -RA BKN004 04/03 Q1010 =
METAR EPKK 290500Z 25007KT 9999 BKN009 04/03 Q1014 =
METAR EPKT 290500Z 28009KT 250V310 9999 BKN005 OVC006 03/02 Q1014 =
METAR EPLL 290500Z 27011KT 9999 -RA BKN004 04/03 Q1012 =
METAR EPPO 290500Z 30004KT CAVOK 04/03 Q1013 =
METAR EPRZ 290500Z 27014KT 9999 SCT008 BKN013 05/03 Q1013 =
METAR EPWA 290500Z 27006KT 240V300 9999 BKN008 04/03 Q1010 NOSIG=
METAR EPWR 290500Z 25006KT 6000 NSC 04/03 Q1015 =
METAR LHBP 290500Z 29013KT 9999 BKN018 06/03 Q1015 NOSIG=
METAR LHSM 290445Z 32002KT CAVOK 05/03 Q1018=
METAR LKCV 290500Z 15005KT CAVOK 02/01 Q1016 NOSIG=
METAR LKKB 290500Z 22008KT 7000 NSC 04/03 Q1016 NOSIG =
METAR LKKU NIL
SPECI LKKV 290505Z VRB01KT 0600 R29/0225N FG SCT002 01/01 Q1015 RMK REG QNH 1012=
SPECI LKLN 290501Z AUTO 20003KT 0500 FG FEW011 SCT091 01/00 Q1017=
METAR LKMT 290500Z 21006KT 9999 FEW007 05/03 Q1016 NOSIG RMK REG QNH 1012=
METAR COR LKNA 290500Z 31008KT 4000 BR NSC 01/01 Q1016 NOSIG=
METAR LKPD 290500Z 10003KT 4000 BR NSC 02/01 Q1016 =
METAR LKPR 290500Z 23012KT 7000 NSC 03/02 Q1016 NOSIG RMK REG QNH 1012=
METAR LKTB 290500Z 17004KT 6000 NSC 02/01 Q1017 NOSIG RMK REG QNH 1012=
METAR LKVO NIL
METAR LOWI 290450Z VRB02KT 9999 FEW004 SCT017 BKN025 03/02 Q1020 NOSIG=
METAR LOWL 290450Z 25008KT 7000 FEW018 BKN021 04/02 Q1019 NOSIG=
METAR LOWS 290450Z 15006KT 120V190 9999 FEW004 BKN040 03/01 Q1019 NOSIG=
METAR LOWW 290450Z 30010KT 9999 FEW015 SCT045 04/02 Q1018 NOSIG=
METAR LZIB 290500Z 29013KT 9999 FEW011 SCT043 BKN070 05/02 Q1017 NOSIG=
METAR LZKZ 290500Z 25003KT 9999 OVC008 07/05 Q1012 NOSIG=
METAR LZPP 290500Z 33008KT 9999 SCT020 BKN050 05/02 Q1016=
METAR LZSL 290500Z VRB04KT 9999 FEW023 06/01 Q1013=
METAR LZTT 290500Z 26015KT 9999 FEW006 OVC016 03/00 Q1011 NOSIG=
METAR LZZI 290500Z 24002KT 9999 FEW005 BKN022 04/03 Q1015=